Hovedside
METAR-TAF:

METAR-TAF

Lufthavner :

Kiruna, Sverige

Kiruna lufthavn

breddegrad: 67-49N, lengdegrad: 020-20E, høyde over havet: 452 m

Gjeldene værobservasjon

Denne rapporten ble laget for 39 minutter siden, klokken 07:50 UTC
Flau vind
Temperatur -24°C
Luftfuktighet 83%
Trykk 1011 hPa
Sikt: 9000 m
Brutte skyer i en høyde av 200 ft
Brutte skyer i en høyde av 500 ft
Overskyet i en høyde av 3300 ft
lett snø

METAR: ESNQ 220750Z 00000KT 9000 -SN BKN002 BKN005 OVC033 M24/M26 Q1011

Tid: 09:29 (08:29 UTC)

Varsel

Denne rapporten ble laget for 2 timer og 59 minutter siden, klokken 05:30 UTC
Varsel gyldig fra 22. klokken 06 UTC til 22. klokken 15 UTC
Vind 2 kt fra Sør-sørøst
Sikt: 2500 m
Brutte skyer i en høyde av 400 ft
lett snø
Midlertidig
fra 22. klokken 06 UTC til 22. klokken 15 UTC
Sikt: 6000 m
Brutte skyer i en høyde av 3000 ft

TAF: ESNQ 220530Z 2206/2215 15002KT 2500 -SN BKN004 TEMPO 2206/2215 6000 BKN030

Værobservasjoner og værvarsel for over 4000 flyplasser (METAR- og TAF-rapporter).

Tilgjengelige stasjoner er representert av de røde og gule prikkene på kartet.

Hold musepekeren over prikken for å se navnet på stasjonen.

Klikk så for å se værobservasjoner og -varsler.

For å forandre kartet kan du klikke på den grønne knappen med svart kryss for å zoome inn, på den grønne knappen med strek for å zoome ut, eller på de grønne pilene for å se tilstøtende kart.


METAR-TAF: